Time;durP1;ratioP1;P1;durP2;ratioP2;P2;SDS_P1;SDS_P2;PMS_P1;PMS_P2;Temp;Humidity;BMP_temperature;BMP_pressure;BME280_temperature;BME280_humidity;BME280_pressure;Samples;Min_cycle;Max_cycle;Signal;HPM_P1;HPM_P2
2024/04/10 00:01:29;;;;;;;0.10;0.10;;;;;;;;;;5415358;26;20000;-87
2024/04/10 00:03:56;;;;;;;0.10;0.10;;;;;;;;;;5413166;26;20019;-86
2024/04/10 00:06:24;;;;;;;0.10;0.10;;;;;;;;;;5415650;26;20012;-86
2024/04/10 00:08:52;;;;;;;0.10;0.10;;;;;;;;;;5415296;26;19999;-86
2024/04/10 00:11:22;;;;;;;0.10;0.10;;;;;;;;;;5414902;26;20004;-86
2024/04/10 00:13:49;;;;;;;0.10;0.10;;;;;;;;;;5414727;26;20000;-86
2024/04/10 00:16:17;;;;;;;0.10;0.10;;;;;;;;;;5387609;26;20032;-86
2024/04/10 00:18:45;;;;;;;0.10;0.10;;;;;;;;;;5417553;26;20020;-86
2024/04/10 00:21:13;;;;;;;0.10;0.10;;;;;;;;;;5387981;26;20020;-86
2024/04/10 00:23:40;;;;;;;0.10;0.10;;;;;;;;;;5418437;26;20008;-86
2024/04/10 00:26:07;;;;;;;0.20;0.20;;;;;;;;;;5416883;26;20028;-86
2024/04/10 00:28:34;;;;;;;0.10;0.10;;;;;;;;;;5418792;26;20004;-86
2024/04/10 00:31:04;;;;;;;0.10;0.10;;;;;;;;;;5416644;26;20020;-86
2024/04/10 00:33:32;;;;;;;0.10;0.10;;;;;;;;;;5418514;26;20003;-86
2024/04/10 00:36:03;;;;;;;0.10;0.10;;;;;;;;;;5416295;26;20019;-86
2024/04/10 00:38:31;;;;;;;0.10;0.10;;;;;;;;;;5418284;26;20010;-86
2024/04/10 00:41:05;;;;;;;0.10;0.10;;;;;;;;;;5418600;26;20004;-86
2024/04/10 00:43:32;;;;;;;0.10;0.10;;;;;;;;;;5417142;26;20028;-86
2024/04/10 00:46:18;;;;;;;0.10;0.10;;;;;;;;;;5418200;26;19999;-86
2024/04/10 00:48:45;;;;;;;0.10;0.10;;;;;;;;;;5418075;26;19999;-86
2024/04/10 00:51:22;;;;;;;0.10;0.10;;;;;;;;;;5387645;26;20016;-86
2024/04/10 00:53:50;;;;;;;0.10;0.10;;;;;;;;;;5418046;26;19999;-86
2024/04/10 00:56:19;;;;;;;0.10;0.10;;;;;;;;;;5387930;26;20016;-86
2024/04/10 00:58:47;;;;;;;0.10;0.10;;;;;;;;;;5416182;26;20020;-86
2024/04/10 01:01:14;;;;;;;0.10;0.10;;;;;;;;;;5416568;26;20019;-86
2024/04/10 01:03:41;;;;;;;0.10;0.10;;;;;;;;;;5415619;26;20472;-86
2024/04/10 01:06:09;;;;;;;0.10;0.10;;;;;;;;;;5416166;26;20028;-86
2024/04/10 01:08:37;;;;;;;0.10;0.10;;;;;;;;;;5387425;26;20483;-86
2024/04/10 01:11:05;;;;;;;0.10;0.10;;;;;;;;;;5418276;26;20004;-86
2024/04/10 01:13:33;;;;;;;0.10;0.10;;;;;;;;;;5415638;26;20021;-86
2024/04/10 01:16:00;;;;;;;0.10;0.10;;;;;;;;;;5418012;26;20002;-86
2024/04/10 01:18:27;;;;;;;0.10;0.10;;;;;;;;;;5387483;26;20030;-87
2024/04/10 01:20:54;;;;;;;0.10;0.10;;;;;;;;;;5387168;26;20341;-87
2024/04/10 01:23:22;;;;;;;0.15;0.15;;;;;;;;;;5415156;26;20011;-86
2024/04/10 01:25:49;;;;;;;0.10;0.10;;;;;;;;;;5415159;26;20435;-86
2024/04/10 01:28:16;;;;;;;0.10;0.10;;;;;;;;;;5415977;26;19996;-86
2024/04/10 01:30:44;;;;;;;0.10;0.10;;;;;;;;;;5417879;26;20010;-85
2024/04/10 01:33:11;;;;;;;0.10;0.10;;;;;;;;;;5418216;26;20427;-85
2024/04/10 01:35:38;;;;;;;0.10;0.10;;;;;;;;;;5416312;26;20015;-86
2024/04/10 01:38:05;;;;;;;0.10;0.10;;;;;;;;;;5415022;26;20024;-85
2024/04/10 01:40:32;;;;;;;0.10;0.10;;;;;;;;;;5417156;26;20364;-86
2024/04/10 01:43:00;;;;;;;0.10;0.10;;;;;;;;;;5416328;26;20032;-86
2024/04/10 01:45:30;;;;;;;0.10;0.10;;;;;;;;;;5417396;26;20351;-85
2024/04/10 01:47:57;;;;;;;0.10;0.10;;;;;;;;;;5417458;26;19996;-86
2024/04/10 01:50:24;;;;;;;0.10;0.10;;;;;;;;;;5415802;26;20467;-86
2024/04/10 01:52:52;;;;;;;0.10;0.10;;;;;;;;;;5415382;26;20024;-86
2024/04/10 01:55:19;;;;;;;0.10;0.10;;;;;;;;;;5415025;26;20019;-86
2024/04/10 01:57:46;;;;;;;0.10;0.10;;;;;;;;;;5386641;26;20024;-86
2024/04/10 02:00:18;;;;;;;0.10;0.10;;;;;;;;;;5386633;26;19999;-86
2024/04/10 02:02:46;;;;;;;0.10;0.10;;;;;;;;;;5414877;26;20459;-86
2024/04/10 02:05:13;;;;;;;0.10;0.10;;;;;;;;;;5415155;26;20356;-86
2024/04/10 02:07:41;;;;;;;0.10;0.10;;;;;;;;;;5417124;26;20440;-86
2024/04/10 02:10:08;;;;;;;0.10;0.10;;;;;;;;;;5417490;26;20000;-86
2024/04/10 02:12:36;;;;;;;0.10;0.10;;;;;;;;;;5417549;26;20004;-86
2024/04/10 02:15:04;;;;;;;0.10;0.10;;;;;;;;;;5415099;26;20032;-86
2024/04/10 02:17:31;;;;;;;0.10;0.10;;;;;;;;;;5415526;26;20032;-86
2024/04/10 02:19:58;;;;;;;0.10;0.10;;;;;;;;;;5416746;26;20014;-86
2024/04/10 02:22:25;;;;;;;0.10;0.10;;;;;;;;;;5415127;26;20029;-86
2024/04/10 02:24:53;;;;;;;0.10;0.10;;;;;;;;;;5415699;26;20000;-86
2024/04/10 02:27:20;;;;;;;0.10;0.10;;;;;;;;;;5414287;26;20019;-86
2024/04/10 02:29:47;;;;;;;0.10;0.10;;;;;;;;;;5416417;26;20003;-85
2024/04/10 02:32:14;;;;;;;0.10;0.10;;;;;;;;;;5416687;26;20007;-86
2024/04/10 02:34:42;;;;;;;0.10;0.10;;;;;;;;;;5417040;26;19999;-86
2024/04/10 02:37:09;;;;;;;0.10;0.10;;;;;;;;;;5415054;26;20476;-86
2024/04/10 02:39:37;;;;;;;0.10;0.10;;;;;;;;;;5413943;26;20006;-86
2024/04/10 02:42:05;;;;;;;0.10;0.10;;;;;;;;;;5415343;26;20000;-86
2024/04/10 02:44:32;;;;;;;0.10;0.10;;;;;;;;;;5416679;26;20003;-87
2024/04/10 02:46:59;;;;;;;0.10;0.10;;;;;;;;;;5414762;26;20015;-86
2024/04/10 02:49:27;;;;;;;0.10;0.10;;;;;;;;;;5416514;26;19995;-86
2024/04/10 02:51:54;;;;;;;0.10;0.10;;;;;;;;;;5386152;26;20016;-87
2024/04/10 02:54:21;;;;;;;0.10;0.10;;;;;;;;;;5415185;26;20006;-86
2024/04/10 02:56:48;;;;;;;0.10;0.10;;;;;;;;;;5416247;26;20336;-85
2024/04/10 03:02:26;;;;;;;0.10;0.10;;;;;;;;;;5508173;25;20319;-86
2024/04/10 03:04:55;;;;;;;0.10;0.10;;;;;;;;;;5439945;26;20026;-86
2024/04/10 03:07:22;;;;;;;0.10;0.10;;;;;;;;;;5471059;26;20010;-87
2024/04/10 03:09:50;;;;;;;0.10;0.10;;;;;;;;;;5471015;26;20402;-87
2024/04/10 03:12:17;;;;;;;0.10;0.10;;;;;;;;;;5434758;26;19999;-87
2024/04/10 03:14:44;;;;;;;0.10;0.10;;;;;;;;;;5432870;26;20355;-86
2024/04/10 03:17:11;;;;;;;0.10;0.10;;;;;;;;;;5432857;26;20012;-87
2024/04/10 03:19:39;;;;;;;0.10;0.10;;;;;;;;;;5433500;26;20004;-87
2024/04/10 03:22:07;;;;;;;0.10;0.10;;;;;;;;;;5434983;26;20027;-86
2024/04/10 03:24:34;;;;;;;0.10;0.10;;;;;;;;;;5433151;26;20451;-87
2024/04/10 03:27:02;;;;;;;0.10;0.10;;;;;;;;;;5429302;26;20023;-87
2024/04/10 03:29:29;;;;;;;0.10;0.10;;;;;;;;;;5435030;26;20010;-86
2024/04/10 03:31:56;;;;;;;0.10;0.10;;;;;;;;;;5434569;26;20404;-87
2024/04/10 03:34:23;;;;;;;0.10;0.10;;;;;;;;;;5403683;26;20031;-86
2024/04/10 03:36:53;;;;;;;0.10;0.10;;;;;;;;;;5434740;26;20011;-86
2024/04/10 03:39:21;;;;;;;0.10;0.10;;;;;;;;;;5434389;26;20423;-87
2024/04/10 03:41:48;;;;;;;0.10;0.10;;;;;;;;;;5434641;26;20464;-87
2024/04/10 03:44:15;;;;;;;0.10;0.10;;;;;;;;;;5434853;26;19995;-86
2024/04/10 03:46:42;;;;;;;0.10;0.10;;;;;;;;;;5434727;26;19995;-87
2024/04/10 03:49:10;;;;;;;0.10;0.10;;;;;;;;;;5434434;26;20447;-87
2024/04/10 03:51:37;;;;;;;0.10;0.10;;;;;;;;;;5434034;26;20319;-86
2024/04/10 03:54:04;;;;;;;0.10;0.10;;;;;;;;;;5431980;26;20032;-86
2024/04/10 03:56:32;;;;;;;0.10;0.10;;;;;;;;;;5434137;26;20010;-86
2024/04/10 03:58:59;;;;;;;0.13;0.13;;;;;;;;;;5432607;26;20023;-86
2024/04/10 04:01:26;;;;;;;0.10;0.10;;;;;;;;;;5434082;26;20365;-87
2024/04/10 04:03:53;;;;;;;0.10;0.10;;;;;;;;;;5434367;26;19996;-87
2024/04/10 04:06:21;;;;;;;0.10;0.10;;;;;;;;;;5434028;26;20010;-87
2024/04/10 04:08:49;;;;;;;0.10;0.10;;;;;;;;;;5432440;26;20028;-86
2024/04/10 04:11:16;;;;;;;0.10;0.10;;;;;;;;;;5434276;26;20010;-87
2024/04/10 04:13:43;;;;;;;0.10;0.10;;;;;;;;;;5416765;26;20015;-86
2024/04/10 04:16:11;;;;;;;0.10;0.10;;;;;;;;;;5418631;26;20444;-86
2024/04/10 04:18:39;;;;;;;0.10;0.10;;;;;;;;;;5388000;26;20006;-87
2024/04/10 04:21:06;;;;;;;0.10;0.10;;;;;;;;;;5387625;26;20024;-86
2024/04/10 04:23:33;;;;;;;0.10;0.10;;;;;;;;;;5418474;26;20333;-86
2024/04/10 04:26:00;;;;;;;0.10;0.10;;;;;;;;;;5417160;26;20020;-87
2024/04/10 04:28:28;;;;;;;0.10;0.10;;;;;;;;;;5418697;26;20016;-87
2024/04/10 04:30:55;;;;;;;0.10;0.10;;;;;;;;;;5418343;26;20074;-87
2024/04/10 04:33:22;;;;;;;0.10;0.10;;;;;;;;;;5416129;26;20022;-87
2024/04/10 04:35:50;;;;;;;0.10;0.10;;;;;;;;;;5418883;26;20000;-88
2024/04/10 04:38:17;;;;;;;0.10;0.10;;;;;;;;;;5418827;26;20351;-86
2024/04/10 04:40:44;;;;;;;0.10;0.10;;;;;;;;;;5416992;26;19996;-87
2024/04/10 04:43:12;;;;;;;0.10;0.10;;;;;;;;;;5416071;26;20024;-87
2024/04/10 04:45:39;;;;;;;0.10;0.10;;;;;;;;;;5417037;26;20024;-87
2024/04/10 04:48:07;;;;;;;0.10;0.10;;;;;;;;;;5415975;26;19995;-87
2024/04/10 04:50:34;;;;;;;0.20;0.20;;;;;;;;;;5417034;26;20016;-87
2024/04/10 04:53:02;;;;;;;0.10;0.10;;;;;;;;;;5416436;26;20353;-87
2024/04/10 04:55:29;;;;;;;0.10;0.10;;;;;;;;;;5418304;26;20003;-87
2024/04/10 04:57:56;;;;;;;0.10;0.10;;;;;;;;;;5418328;26;19996;-86
2024/04/10 05:00:23;;;;;;;0.10;0.10;;;;;;;;;;5416247;26;20019;-86
2024/04/10 05:02:50;;;;;;;0.10;0.10;;;;;;;;;;5418065;26;20361;-87
2024/04/10 05:05:19;;;;;;;0.10;0.10;;;;;;;;;;5418436;26;19996;-87
2024/04/10 05:07:48;;;;;;;0.10;0.10;;;;;;;;;;5416334;26;20010;-87
2024/04/10 05:10:16;;;;;;;0.10;0.10;;;;;;;;;;5415922;26;19999;-87
2024/04/10 05:12:43;;;;;;;0.10;0.10;;;;;;;;;;5418105;26;20003;-88
2024/04/10 05:15:10;;;;;;;0.10;0.10;;;;;;;;;;5386704;26;19999;-86
2024/04/10 05:17:40;;;;;;;0.10;0.10;;;;;;;;;;5416090;26;20018;-89
2024/04/10 05:20:14;;;;;;;0.10;0.10;;;;;;;;;;5415918;26;20015;-88
2024/04/10 05:22:42;;;;;;;0.10;0.10;;;;;;;;;;5417891;26;20424;-88
2024/04/10 05:25:12;;;;;;;0.10;0.10;;;;;;;;;;5415770;26;20032;-88
2024/04/10 05:27:41;;;;;;;0.10;0.10;;;;;;;;;;5417947;26;20011;-87
2024/04/10 05:30:09;;;;;;;0.10;0.10;;;;;;;;;;5387571;26;20349;-87
2024/04/10 05:32:37;;;;;;;0.10;0.10;;;;;;;;;;5418070;26;20011;-87
2024/04/10 05:35:06;;;;;;;0.10;0.10;;;;;;;;;;5415484;26;20028;-87
2024/04/10 05:37:33;;;;;;;0.10;0.10;;;;;;;;;;5415526;26;20341;-87
2024/04/10 05:40:09;;;;;;;0.10;0.10;;;;;;;;;;5415110;26;20021;-87
2024/04/10 05:42:36;;;;;;;0.10;0.10;;;;;;;;;;5387294;26;20020;-87
2024/04/10 05:45:04;;;;;;;0.10;0.10;;;;;;;;;;5421509;26;20407;-95
2024/04/10 05:47:31;;;;;;;0.10;0.10;;;;;;;;;;5415911;26;20363;-87
2024/04/10 05:49:58;;;;;;;0.10;0.10;;;;;;;;;;5386582;26;20356;-87
2024/04/10 05:52:26;;;;;;;0.10;0.10;;;;;;;;;;5415080;26;20019;-87
2024/04/10 05:54:53;;;;;;;0.10;0.10;;;;;;;;;;5417319;26;20420;-87
2024/04/10 05:57:24;;;;;;;0.10;0.10;;;;;;;;;;5415361;26;20028;-86
2024/04/10 05:59:52;;;;;;;0.10;0.10;;;;;;;;;;5387989;26;20011;-92
2024/04/10 06:02:20;;;;;;;0.10;0.10;;;;;;;;;;5386306;26;20024;-86
2024/04/10 06:04:47;;;;;;;0.10;0.10;;;;;;;;;;5386692;26;20314;-87
2024/04/10 06:07:14;;;;;;;0.10;0.10;;;;;;;;;;5414353;26;20028;-88
2024/04/10 06:09:42;;;;;;;0.10;0.10;;;;;;;;;;5415878;26;20471;-87
2024/04/10 06:12:09;;;;;;;0.10;0.10;;;;;;;;;;5414775;26;20432;-88
2024/04/10 06:14:37;;;;;;;0.10;0.10;;;;;;;;;;5415176;26;20012;-88
2024/04/10 06:17:04;;;;;;;0.10;0.10;;;;;;;;;;5386571;26;20019;-87
2024/04/10 06:19:32;;;;;;;0.10;0.10;;;;;;;;;;5386114;26;20023;-90
2024/04/10 06:22:00;;;;;;;0.10;0.10;;;;;;;;;;5414818;26;20024;-90
2024/04/10 06:24:29;;;;;;;0.10;0.10;;;;;;;;;;5414966;26;20344;-87
2024/04/10 06:26:56;;;;;;;0.10;0.10;;;;;;;;;;5415937;26;20012;-88
2024/04/10 06:29:23;;;;;;;0.10;0.10;;;;;;;;;;5416138;26;20463;-87
2024/04/10 06:31:51;;;;;;;0.10;0.10;;;;;;;;;;5414635;26;20018;-88
2024/04/10 06:34:18;;;;;;;0.10;0.10;;;;;;;;;;5417414;26;19995;-87
2024/04/10 06:36:45;;;;;;;0.20;0.20;;;;;;;;;;5414096;26;20348;-88
2024/04/10 06:39:12;;;;;;;0.10;0.10;;;;;;;;;;5416956;26;20000;-87
2024/04/10 06:41:40;;;;;;;0.10;0.10;;;;;;;;;;5417147;26;20007;-88
2024/04/10 06:44:07;;;;;;;0.10;0.10;;;;;;;;;;5412156;26;20015;-85
2024/04/10 06:46:34;;;;;;;0.10;0.10;;;;;;;;;;5413969;26;20016;-87
2024/04/10 06:49:01;;;;;;;2.10;0.15;;;;;;;;;;5416398;26;20023;-86
2024/04/10 06:51:28;;;;;;;0.20;0.20;;;;;;;;;;5415226;26;20015;-86
2024/04/10 06:53:56;;;;;;;0.10;0.10;;;;;;;;;;5414523;26;20020;-87
2024/04/10 06:56:23;;;;;;;0.10;0.10;;;;;;;;;;5416619;26;20359;-85
2024/04/10 06:58:51;;;;;;;0.10;0.10;;;;;;;;;;5415296;26;20452;-86
2024/04/10 07:01:18;;;;;;;0.10;0.10;;;;;;;;;;5416184;26;20006;-86
2024/04/10 07:03:45;;;;;;;0.10;0.10;;;;;;;;;;5416864;26;20530;-86
2024/04/10 07:06:17;;;;;;;0.10;0.10;;;;;;;;;;5412310;26;20016;-86
2024/04/10 07:08:47;;;;;;;0.17;0.13;;;;;;;;;;5387350;26;20336;-84
2024/04/10 07:11:16;;;;;;;0.10;0.10;;;;;;;;;;5416038;26;20019;-84
2024/04/10 07:13:46;;;;;;;0.10;0.10;;;;;;;;;;5416066;26;20119;-84
2024/04/10 07:16:14;;;;;;;0.40;0.40;;;;;;;;;;5414094;26;20028;-85
2024/04/10 07:18:41;;;;;;;0.30;0.20;;;;;;;;;;5416368;26;20000;-85
2024/04/10 07:21:08;;;;;;;0.10;0.10;;;;;;;;;;5413836;26;20035;-83
2024/04/10 07:23:37;;;;;;;0.28;0.20;;;;;;;;;;5415770;26;20015;-86
2024/04/10 07:26:14;;;;;;;0.10;0.10;;;;;;;;;;5414053;26;20348;-85
2024/04/10 07:28:45;;;;;;;0.10;0.10;;;;;;;;;;5413597;26;20335;-84
2024/04/10 07:31:12;;;;;;;0.10;0.10;;;;;;;;;;5413676;26;20452;-84
2024/04/10 07:33:40;;;;;;;0.20;0.20;;;;;;;;;;5413609;26;20020;-84
2024/04/10 07:36:07;;;;;;;0.17;0.17;;;;;;;;;;5413286;26;20015;-84
2024/04/10 07:38:34;;;;;;;0.10;0.10;;;;;;;;;;5415638;26;20010;-83
2024/04/10 07:41:02;;;;;;;0.10;0.10;;;;;;;;;;5415594;26;20010;-84
2024/04/10 07:43:29;;;;;;;0.10;0.10;;;;;;;;;;5413184;26;20313;-85
2024/04/10 07:45:56;;;;;;;1.67;0.43;;;;;;;;;;5413832;26;19999;-89
2024/04/10 07:48:23;;;;;;;0.20;0.20;;;;;;;;;;5417933;26;20032;-85
2024/04/10 07:50:50;;;;;;;0.10;0.10;;;;;;;;;;5418645;26;20024;-84
2024/04/10 07:53:18;;;;;;;0.10;0.10;;;;;;;;;;5416871;26;20024;-83
2024/04/10 07:55:45;;;;;;;0.20;0.20;;;;;;;;;;5418757;26;20432;-86
2024/04/10 07:58:12;;;;;;;0.20;0.20;;;;;;;;;;5418976;26;20014;-85
2024/04/10 08:00:39;;;;;;;0.10;0.10;;;;;;;;;;5418823;26;20363;-86
2024/04/10 08:03:08;;;;;;;0.10;0.10;;;;;;;;;;5418926;26;20019;-85
2024/04/10 08:05:35;;;;;;;0.22;0.20;;;;;;;;;;5417315;26;20019;-85
2024/04/10 08:08:03;;;;;;;0.77;0.20;;;;;;;;;;5418700;26;19996;-85
2024/04/10 08:10:31;;;;;;;0.50;0.50;;;;;;;;;;5418915;26;19999;-85
2024/04/10 08:13:00;;;;;;;0.45;0.45;;;;;;;;;;5418681;26;20007;-85
2024/04/10 08:15:28;;;;;;;0.10;0.10;;;;;;;;;;5417469;26;20361;-84
2024/04/10 08:17:55;;;;;;;0.20;0.20;;;;;;;;;;5419186;26;20025;-85
2024/04/10 08:20:23;;;;;;;0.20;0.20;;;;;;;;;;5416938;26;20015;-85
2024/04/10 08:22:51;;;;;;;0.20;0.20;;;;;;;;;;5418922;26;20315;-84
2024/04/10 08:25:18;;;;;;;0.20;0.20;;;;;;;;;;5418547;26;20443;-85
2024/04/10 08:27:45;;;;;;;0.20;0.20;;;;;;;;;;5418433;26;20011;-85
2024/04/10 08:30:12;;;;;;;0.20;0.20;;;;;;;;;;5418861;26;20018;-85
2024/04/10 08:32:40;;;;;;;0.20;0.20;;;;;;;;;;5418347;26;20404;-84
2024/04/10 08:35:08;;;;;;;0.47;0.47;;;;;;;;;;5416890;26;20011;-85
2024/04/10 08:37:35;;;;;;;0.10;0.10;;;;;;;;;;5387481;26;20019;-84
2024/04/10 08:40:03;;;;;;;0.10;0.10;;;;;;;;;;5418290;26;20019;-84
2024/04/10 08:42:30;;;;;;;0.35;0.35;;;;;;;;;;5418554;26;20000;-84
2024/04/10 08:44:57;;;;;;;0.10;0.10;;;;;;;;;;5416160;26;20016;-84
2024/04/10 08:47:24;;;;;;;0.20;0.20;;;;;;;;;;5418501;26;20000;-84
2024/04/10 08:49:51;;;;;;;0.10;0.10;;;;;;;;;;5416873;26;20020;-84
2024/04/10 08:52:19;;;;;;;0.10;0.10;;;;;;;;;;5416446;26;20282;-84
2024/04/10 08:54:46;;;;;;;0.15;0.15;;;;;;;;;;5415928;26;20016;-84
2024/04/10 08:57:13;;;;;;;0.20;0.20;;;;;;;;;;5418058;26;19996;-84
2024/04/10 08:59:40;;;;;;;0.10;0.10;;;;;;;;;;5417622;26;20436;-84
2024/04/10 09:02:08;;;;;;;0.10;0.10;;;;;;;;;;5417202;26;20011;-84
2024/04/10 09:04:42;;;;;;;0.15;0.15;;;;;;;;;;5416443;26;20485;-85
2024/04/10 09:07:09;;;;;;;0.20;0.20;;;;;;;;;;5418957;26;20000;-85
2024/04/10 09:09:39;;;;;;;0.20;0.20;;;;;;;;;;5418011;26;20018;-85
2024/04/10 09:12:07;;;;;;;0.20;0.20;;;;;;;;;;5417783;26;20003;-85
2024/04/10 09:14:35;;;;;;;0.10;0.10;;;;;;;;;;5417415;26;20014;-85
2024/04/10 09:17:03;;;;;;;0.10;0.10;;;;;;;;;;5417943;26;20443;-85
2024/04/10 09:19:30;;;;;;;0.55;0.55;;;;;;;;;;5417807;26;20419;-85
2024/04/10 09:21:58;;;;;;;0.17;0.17;;;;;;;;;;5418223;26;20010;-84
2024/04/10 09:24:27;;;;;;;0.10;0.10;;;;;;;;;;5418038;26;20016;-85
2024/04/10 09:26:54;;;;;;;0.15;0.15;;;;;;;;;;5416445;26;19995;-84
2024/04/10 09:29:28;;;;;;;0.10;0.10;;;;;;;;;;5417727;26;19996;-85
2024/04/10 09:32:04;;;;;;;0.10;0.10;;;;;;;;;;5416779;26;20003;-85
2024/04/10 09:34:33;;;;;;;0.10;0.10;;;;;;;;;;5418111;26;20150;-84
2024/04/10 09:37:04;;;;;;;0.15;0.15;;;;;;;;;;5415412;26;20024;-84
2024/04/10 09:39:31;;;;;;;0.10;0.10;;;;;;;;;;5417510;26;19999;-84
2024/04/10 09:41:59;;;;;;;0.20;0.20;;;;;;;;;;5416214;26;20027;-84
2024/04/10 09:44:30;;;;;;;0.10;0.10;;;;;;;;;;5417525;26;20020;-84
2024/04/10 09:46:58;;;;;;;0.10;0.10;;;;;;;;;;5417523;26;20000;-84
2024/04/10 09:49:29;;;;;;;0.20;0.20;;;;;;;;;;5417742;26;20011;-85
2024/04/10 09:51:59;;;;;;;0.15;0.15;;;;;;;;;;5386176;26;20484;-84
2024/04/10 09:54:27;;;;;;;0.20;0.20;;;;;;;;;;5417455;26;20019;-84
2024/04/10 09:56:55;;;;;;;0.15;0.15;;;;;;;;;;5386342;26;20024;-84
2024/04/10 09:59:22;;;;;;;0.10;0.10;;;;;;;;;;5415396;26;20028;-84
2024/04/10 10:01:54;;;;;;;0.20;0.20;;;;;;;;;;5414726;26;20028;-84
2024/04/10 10:04:21;;;;;;;0.10;0.10;;;;;;;;;;5417358;26;20020;-84
2024/04/10 10:06:49;;;;;;;0.10;0.10;;;;;;;;;;5417143;26;20003;-84
2024/04/10 10:09:25;;;;;;;0.28;0.28;;;;;;;;;;5416912;26;20014;-84
2024/04/10 10:11:58;;;;;;;0.10;0.10;;;;;;;;;;5416605;26;20075;-84
2024/04/10 10:14:26;;;;;;;0.40;0.40;;;;;;;;;;5417094;26;20435;-84
2024/04/10 10:17:14;;;;;;;0.20;0.20;;;;;;;;;;5416905;26;19999;-84
2024/04/10 10:19:41;;;;;;;0.40;0.40;;;;;;;;;;5417526;26;20004;-84
2024/04/10 10:22:08;;;;;;;0.10;0.10;;;;;;;;;;5417087;26;20011;-84
2024/04/10 10:24:36;;;;;;;0.30;0.30;;;;;;;;;;5414988;26;20024;-84
2024/04/10 10:27:03;;;;;;;0.10;0.10;;;;;;;;;;5416929;26;19999;-84
2024/04/10 10:29:35;;;;;;;0.20;0.20;;;;;;;;;;5416981;26;20014;-84
2024/04/10 10:32:02;;;;;;;;;;;;;;;;;;5415119;26;20031;-84
2024/04/10 10:34:29;;;;;;;0.10;0.10;;;;;;;;;;5416722;26;19929;-84
2024/04/10 10:37:06;;;;;;;0.20;0.20;;;;;;;;;;5415439;26;20029;-84
2024/04/10 10:39:34;;;;;;;0.15;0.10;;;;;;;;;;5416608;26;20010;-85
2024/04/10 10:42:02;;;;;;;0.10;0.10;;;;;;;;;;5414548;26;20025;-84
2024/04/10 10:44:29;;;;;;;0.10;0.10;;;;;;;;;;5414703;26;20459;-84
2024/04/10 10:46:59;;;;;;;0.75;0.75;;;;;;;;;;5417028;26;19995;-84
2024/04/10 10:49:26;;;;;;;0.20;0.20;;;;;;;;;;5414516;26;20000;-84
2024/04/10 10:51:54;;;;;;;0.17;0.17;;;;;;;;;;5416533;26;20434;-85
2024/04/10 10:54:21;;;;;;;0.35;0.35;;;;;;;;;;5384973;26;20016;-84
2024/04/10 10:56:48;;;;;;;0.10;0.10;;;;;;;;;;5414406;26;20019;-84
2024/04/10 10:59:16;;;;;;;0.10;0.10;;;;;;;;;;5416436;26;20444;-84
2024/04/10 11:01:43;;;;;;;0.20;0.20;;;;;;;;;;5415946;26;20006;-84
2024/04/10 11:04:11;;;;;;;0.10;0.10;;;;;;;;;;5414484;26;20015;-84
2024/04/10 11:06:38;;;;;;;0.10;0.10;;;;;;;;;;5414001;26;19999;-85
2024/04/10 11:09:06;;;;;;;0.10;0.10;;;;;;;;;;5416175;26;20014;-84
2024/04/10 11:11:33;;;;;;;0.10;0.10;;;;;;;;;;5416005;26;19995;-84
2024/04/10 11:14:00;;;;;;;0.32;0.20;;;;;;;;;;5416571;26;20427;-83
2024/04/10 11:16:28;;;;;;;0.10;0.10;;;;;;;;;;5416417;26;19996;-85
2024/04/10 11:18:56;;;;;;;0.10;0.10;;;;;;;;;;5413957;26;20029;-84
2024/04/10 11:21:23;;;;;;;0.10;0.10;;;;;;;;;;5416590;26;20002;-84
2024/04/10 11:23:50;;;;;;;0.17;0.17;;;;;;;;;;5417833;26;20016;-84
2024/04/10 11:26:17;;;;;;;1.88;0.50;;;;;;;;;;5419468;26;20020;-84
2024/04/10 11:28:46;;;;;;;0.20;0.20;;;;;;;;;;5417447;26;20020;-84
2024/04/10 11:31:13;;;;;;;0.10;0.10;;;;;;;;;;5388171;26;20024;-84
2024/04/10 11:33:40;;;;;;;0.10;0.10;;;;;;;;;;5417467;26;20019;-84
2024/04/10 11:36:08;;;;;;;0.13;0.13;;;;;;;;;;5419420;26;20006;-84
2024/04/10 11:38:37;;;;;;;0.10;0.10;;;;;;;;;;5419448;26;19999;-84
2024/04/10 11:41:05;;;;;;;0.15;0.15;;;;;;;;;;5419562;26;20011;-84
2024/04/10 11:43:33;;;;;;;0.10;0.10;;;;;;;;;;5417713;26;20024;-84
2024/04/10 11:46:00;;;;;;;0.10;0.10;;;;;;;;;;5419197;26;20011;-84
2024/04/10 11:48:27;;;;;;;0.10;0.10;;;;;;;;;;5417563;26;20019;-85
2024/04/10 11:50:56;;;;;;;0.10;0.10;;;;;;;;;;5418949;26;20396;-84
2024/04/10 11:53:23;;;;;;;0.10;0.10;;;;;;;;;;5419139;26;20360;-84
2024/04/10 11:55:50;;;;;;;0.10;0.10;;;;;;;;;;5419200;26;20000;-85
2024/04/10 11:58:17;;;;;;;0.10;0.10;;;;;;;;;;5417485;26;20019;-85
2024/04/10 12:00:45;;;;;;;0.40;0.40;;;;;;;;;;5417025;26;20454;-85
2024/04/10 12:03:12;;;;;;;0.10;0.10;;;;;;;;;;5419089;26;20015;-85
2024/04/10 12:05:40;;;;;;;0.10;0.10;;;;;;;;;;5418831;26;20419;-84
2024/04/10 12:08:07;;;;;;;0.20;0.20;;;;;;;;;;5417568;26;20016;-85
2024/04/10 12:10:34;;;;;;;0.20;0.20;;;;;;;;;;5417066;26;20015;-84
2024/04/10 12:13:03;;;;;;;0.10;0.10;;;;;;;;;;5419066;26;19996;-84
2024/04/10 12:15:30;;;;;;;0.10;0.10;;;;;;;;;;5417071;26;20015;-84
2024/04/10 12:17:57;;;;;;;0.30;0.30;;;;;;;;;;5418786;26;20019;-85
2024/04/10 12:20:26;;;;;;;0.20;0.20;;;;;;;;;;5418693;26;20445;-85
2024/04/10 12:22:53;;;;;;;0.20;0.20;;;;;;;;;;5418663;26;20011;-85
2024/04/10 12:25:21;;;;;;;0.10;0.10;;;;;;;;;;5417010;26;20025;-84
2024/04/10 12:27:48;;;;;;;0.10;0.10;;;;;;;;;;5416929;26;20015;-84
2024/04/10 12:30:16;;;;;;;0.20;0.20;;;;;;;;;;5418556;26;20021;-84
2024/04/10 12:32:43;;;;;;;0.10;0.10;;;;;;;;;;5417700;26;20005;-84
2024/04/10 12:38:03;;;;;;;0.10;0.10;;;;;;;;;;5418342;26;19999;-84
2024/04/10 12:40:30;;;;;;;0.20;0.20;;;;;;;;;;5417145;26;20023;-85
2024/04/10 12:42:57;;;;;;;0.20;0.20;;;;;;;;;;5418177;26;19996;-85
2024/04/10 12:45:24;;;;;;;0.10;0.10;;;;;;;;;;5418384;26;20020;-84
2024/04/10 12:47:52;;;;;;;0.20;0.20;;;;;;;;;;5416623;26;20028;-84
2024/04/10 12:50:19;;;;;;;0.20;0.20;;;;;;;;;;5418135;26;19996;-85
2024/04/10 12:52:46;;;;;;;0.10;0.10;;;;;;;;;;5417016;26;20000;-84
2024/04/10 12:55:13;;;;;;;0.20;0.20;;;;;;;;;;5418288;26;20000;-84
2024/04/10 12:57:41;;;;;;;0.20;0.20;;;;;;;;;;5416193;26;20353;-85
2024/04/10 13:00:08;;;;;;;0.10;0.10;;;;;;;;;;5416238;26;20019;-85
2024/04/10 13:02:35;;;;;;;0.10;0.10;;;;;;;;;;5418709;26;20000;-84
2024/04/10 13:05:04;;;;;;;0.10;0.10;;;;;;;;;;5418392;26;20019;-85
2024/04/10 13:07:31;;;;;;;0.20;0.20;;;;;;;;;;5418404;26;19999;-84
2024/04/10 13:09:58;;;;;;;1.13;0.68;;;;;;;;;;5417909;26;20344;-84
2024/04/10 13:12:26;;;;;;;0.10;0.10;;;;;;;;;;5417980;26;20428;-84
2024/04/10 13:14:55;;;;;;;0.20;0.20;;;;;;;;;;5418131;26;20007;-84
2024/04/10 13:17:24;;;;;;;0.20;0.20;;;;;;;;;;5416068;26;20440;-85
2024/04/10 13:19:51;;;;;;;0.20;0.20;;;;;;;;;;5417981;26;20006;-84
2024/04/10 13:22:20;;;;;;;0.30;0.30;;;;;;;;;;5416262;26;20024;-85
2024/04/10 13:24:47;;;;;;;0.20;0.20;;;;;;;;;;5417696;26;20002;-84
2024/04/10 13:27:15;;;;;;;0.10;0.10;;;;;;;;;;5418029;26;20477;-85
2024/04/10 13:29:43;;;;;;;0.20;0.20;;;;;;;;;;5417878;26;20014;-84
2024/04/10 13:32:10;;;;;;;0.10;0.10;;;;;;;;;;5416134;26;20028;-85
2024/04/10 13:34:37;;;;;;;0.20;0.20;;;;;;;;;;5386108;26;20024;-84
2024/04/10 13:37:08;;;;;;;0.20;0.20;;;;;;;;;;5415184;26;20028;-84
2024/04/10 13:39:35;;;;;;;0.10;0.10;;;;;;;;;;5416830;26;20353;-84
2024/04/10 13:42:02;;;;;;;0.10;0.10;;;;;;;;;;5415068;26;20015;-84
2024/04/10 13:44:29;;;;;;;0.17;0.17;;;;;;;;;;5414577;26;20015;-85
2024/04/10 13:46:57;;;;;;;0.10;0.10;;;;;;;;;;5416844;26;20015;-84
2024/04/10 13:49:24;;;;;;;0.20;0.20;;;;;;;;;;5417535;26;19996;-84
2024/04/10 13:51:51;;;;;;;0.10;0.10;;;;;;;;;;5416929;26;19999;-85
2024/04/10 13:54:19;;;;;;;0.10;0.10;;;;;;;;;;5417577;26;20007;-84
2024/04/10 13:56:46;;;;;;;0.10;0.10;;;;;;;;;;5417436;26;20000;-84
2024/04/10 13:59:13;;;;;;;0.10;0.10;;;;;;;;;;5417233;26;19995;-85
2024/04/10 14:01:46;;;;;;;0.20;0.20;;;;;;;;;;5415765;26;20020;-84
2024/04/10 14:04:13;;;;;;;0.10;0.10;;;;;;;;;;5415654;26;20020;-84
2024/04/10 14:06:41;;;;;;;0.10;0.10;;;;;;;;;;5417248;26;20019;-84
2024/04/10 14:09:09;;;;;;;0.10;0.10;;;;;;;;;;5417513;26;20438;-84
2024/04/10 14:11:37;;;;;;;0.10;0.10;;;;;;;;;;5416303;26;20019;-84
2024/04/10 14:14:04;;;;;;;1.75;0.30;;;;;;;;;;5417294;26;20015;-84
2024/04/10 14:16:31;;;;;;;0.10;0.10;;;;;;;;;;5417244;26;20014;-84
2024/04/10 14:18:59;;;;;;;0.10;0.10;;;;;;;;;;5414785;26;20034;-84
2024/04/10 14:21:26;;;;;;;0.10;0.10;;;;;;;;;;5417387;26;20014;-84
2024/04/10 14:23:56;;;;;;;0.10;0.10;;;;;;;;;;5417249;26;20014;-85
2024/04/10 14:26:24;;;;;;;0.10;0.10;;;;;;;;;;5415672;26;20021;-84
2024/04/10 14:28:51;;;;;;;0.10;0.10;;;;;;;;;;5415371;26;20024;-84
2024/04/10 14:31:18;;;;;;;0.10;0.10;;;;;;;;;;5414675;26;20003;-84
2024/04/10 14:33:45;;;;;;;0.10;0.10;;;;;;;;;;5416995;26;19996;-84
2024/04/10 14:36:12;;;;;;;0.10;0.10;;;;;;;;;;5415692;26;20031;-85
2024/04/10 14:38:40;;;;;;;0.10;0.10;;;;;;;;;;5415096;26;20003;-86
2024/04/10 14:41:07;;;;;;;0.10;0.10;;;;;;;;;;5416704;26;19995;-86
2024/04/10 14:43:35;;;;;;;0.22;0.22;;;;;;;;;;5417053;26;20003;-86
2024/04/10 14:46:06;;;;;;;0.10;0.10;;;;;;;;;;5415079;26;20475;-86
2024/04/10 14:48:35;;;;;;;0.10;0.10;;;;;;;;;;5414781;26;20032;-86
2024/04/10 14:51:03;;;;;;;0.55;0.55;;;;;;;;;;5416859;26;20014;-86
2024/04/10 14:53:30;;;;;;;0.10;0.10;;;;;;;;;;5385579;26;20028;-84